Etusivu
METAR-TAF:

METAR-TAF

Lentoasemat :

Istanbul Atatürk, Turkki

Istanbul-Atatürkin kansainvälinen lentoasema

Leveyspiiri: 40-58N, Pituuspiiri: 028-49E, korkeus merenpinnasta: 48 m

Tämänhetkinen sää

Tämä raportti tehtiin 47 minuuttia sitten, kello 09.20 UTC
Tuuli 6 kn etelästä, vaihdellen etelän/kaakon ja lounaan välillä
Lämpötila 19°C
Kosteus 64%
Ilmanpaine 1013 hPa
Näkyvyys 10 km tai enemmän
Hajanaisia pilviä 3500 ft:n korkeudessa
Hajonneita pilviä 10000 ft:n korkeudessa

METAR: LTBA 270920Z 19006KT 160V220 9999 SCT035 BKN100 19/12 Q1013 NOSIG RMK RWY17L 19008KT RWY05 17003KT RWY23 21008KT

Aika: 13:07 (10:07 UTC)

Sääennuste

Tämä raportti tehtiin 5 tuntia ja 27 minuuttia sitten, kello 04.40 UTC
Ennuste voimassa 27. päivästä klo 06 UTC - 28. päivään klo 12 UTC
Tuuli 12 kn pohjoisesta/koillisesta
Näkyvyys 10 km tai enemmän
Hajanaisia pilviä 3500 ft:n korkeudessa
Hajonneita pilviä 10000 ft:n korkeudessa

TAF: LTBA 270440Z 2706/2812 03012KT 9999 SCT035 BKN100

Säähavainnot ja -ennusteet yli 4000 lentoasemalta (METAR- ja TAF-raportit).

Käytössä olevat sääasemat on merkitty karttaan keltaisilla ja punaisilla pisteillä.

Aseta hiiri pisteen päälle nähdäksesi sääaseman nimen.

Klikkaa sitten nähdäksesi säähavainnot ja -ennusteet.

Kartan vaihtaminen: klikkaa mustalla rastilla varustettuja vihreitä pisteitä, niin voit zoomata sisään; viivalla varustettua vihreää pistettä, niin voit zoomata ulos tai vihreitä nuolia, niin pääset viereisille kartoille.


METAR-TAF: